Terminal Aerodrome Forecast
Issued by NWS Buffalo, NY

Home | Current Version | Previous Version | Text Only | Print | Product List | Glossary On
Versions: 1 2 3 4 5 6 7 8 9 10 11 12 13 14 15 16 17 18 19 20 21 22 23 24 25 26 27 28 29 30
000
FTUS41 KBUF 032300
TAFBUF
TAF
KBUF 032339Z 0400/0424 20014KT 2SM -FZRA BR SCT007 OVC015
     FM040300 22014KT 3SM BR VCSH BKN007 WS020/24045KT
     FM040430 23014KT P6SM VCSH SCT003 OVC007 WS020/24045KT
     FM040700 24014G22KT P6SM VCSH SCT007 OVC015
     FM041200 26014G24KT P6SM SCT015 OVC035
     FM041800 26012G20KT P6SM SCT035 BKN070
     FM042100 27012KT P6SM BKN130=

USA.gov is the U.S. government's official web portal to all federal, state and local government web resources and services.